sensor_id;sensor_type;location;lat;lon;timestamp;P1;durP1;ratioP1;P2;durP2;ratioP2
15273;SDS011;7738;49.532;11.156;2023-02-12T00:00:04;39.67;;;20.70;;
15273;SDS011;7738;49.532;11.156;2023-02-12T00:02:42;44.03;;;19.85;;
15273;SDS011;7738;49.532;11.156;2023-02-12T00:05:12;45.03;;;19.33;;
15273;SDS011;7738;49.532;11.156;2023-02-12T00:07:45;39.45;;;19.65;;
15273;SDS011;7738;49.532;11.156;2023-02-12T00:10:16;39.30;;;20.25;;
15273;SDS011;7738;49.532;11.156;2023-02-12T00:12:46;35.60;;;17.88;;
15273;SDS011;7738;49.532;11.156;2023-02-12T00:15:16;34.55;;;18.35;;
15273;SDS011;7738;49.532;11.156;2023-02-12T00:17:47;35.20;;;18.50;;
15273;SDS011;7738;49.532;11.156;2023-02-12T00:20:17;34.40;;;18.08;;
15273;SDS011;7738;49.532;11.156;2023-02-12T00:22:50;30.27;;;17.50;;
15273;SDS011;7738;49.532;11.156;2023-02-12T00:25:20;33.58;;;16.92;;
15273;SDS011;7738;49.532;11.156;2023-02-12T00:27:50;31.05;;;17.25;;
15273;SDS011;7738;49.532;11.156;2023-02-12T00:30:20;32.78;;;17.95;;
15273;SDS011;7738;49.532;11.156;2023-02-12T00:32:53;30.95;;;16.83;;
15273;SDS011;7738;49.532;11.156;2023-02-12T00:35:23;37.33;;;18.33;;
15273;SDS011;7738;49.532;11.156;2023-02-12T00:37:57;34.60;;;17.77;;
15273;SDS011;7738;49.532;11.156;2023-02-12T00:40:27;47.35;;;17.98;;
15273;SDS011;7738;49.532;11.156;2023-02-12T00:42:57;37.03;;;18.38;;
15273;SDS011;7738;49.532;11.156;2023-02-12T00:45:27;31.77;;;17.48;;
15273;SDS011;7738;49.532;11.156;2023-02-12T00:47:57;33.50;;;18.15;;
15273;SDS011;7738;49.532;11.156;2023-02-12T00:50:28;27.83;;;15.45;;
15273;SDS011;7738;49.532;11.156;2023-02-12T00:53:01;29.30;;;16.83;;
15273;SDS011;7738;49.532;11.156;2023-02-12T00:55:32;33.10;;;16.35;;
15273;SDS011;7738;49.532;11.156;2023-02-12T00:58:02;29.27;;;17.55;;
15273;SDS011;7738;49.532;11.156;2023-02-12T01:00:32;35.70;;;18.02;;
15273;SDS011;7738;49.532;11.156;2023-02-12T01:03:03;32.55;;;17.90;;
15273;SDS011;7738;49.532;11.156;2023-02-12T01:05:33;35.17;;;18.13;;
15273;SDS011;7738;49.532;11.156;2023-02-12T01:08:06;35.58;;;18.08;;
15273;SDS011;7738;49.532;11.156;2023-02-12T01:10:36;33.00;;;18.15;;
15273;SDS011;7738;49.532;11.156;2023-02-12T01:13:09;38.03;;;18.02;;
15273;SDS011;7738;49.532;11.156;2023-02-12T01:15:41;35.63;;;17.67;;
15273;SDS011;7738;49.532;11.156;2023-02-12T01:18:11;39.30;;;17.92;;
15273;SDS011;7738;49.532;11.156;2023-02-12T01:20:42;34.17;;;17.75;;
15273;SDS011;7738;49.532;11.156;2023-02-12T01:23:15;37.58;;;19.15;;
15273;SDS011;7738;49.532;11.156;2023-02-12T01:25:45;35.53;;;18.05;;
15273;SDS011;7738;49.532;11.156;2023-02-12T01:28:16;38.75;;;19.38;;
15273;SDS011;7738;49.532;11.156;2023-02-12T01:30:46;39.30;;;19.42;;
15273;SDS011;7738;49.532;11.156;2023-02-12T01:33:16;38.42;;;19.67;;
15273;SDS011;7738;49.532;11.156;2023-02-12T01:35:46;41.88;;;19.30;;
15273;SDS011;7738;49.532;11.156;2023-02-12T01:38:19;41.78;;;21.05;;
15273;SDS011;7738;49.532;11.156;2023-02-12T01:40:49;42.28;;;21.27;;
15273;SDS011;7738;49.532;11.156;2023-02-12T01:43:19;50.35;;;22.15;;
15273;SDS011;7738;49.532;11.156;2023-02-12T01:45:50;45.10;;;22.58;;
15273;SDS011;7738;49.532;11.156;2023-02-12T01:48:24;38.42;;;20.00;;
15273;SDS011;7738;49.532;11.156;2023-02-12T01:50:56;42.05;;;21.25;;
15273;SDS011;7738;49.532;11.156;2023-02-12T01:53:31;45.22;;;21.50;;
15273;SDS011;7738;49.532;11.156;2023-02-12T01:56:05;45.20;;;19.60;;
15273;SDS011;7738;49.532;11.156;2023-02-12T01:58:37;41.47;;;21.08;;
15273;SDS011;7738;49.532;11.156;2023-02-12T02:01:11;45.22;;;22.08;;
15273;SDS011;7738;49.532;11.156;2023-02-12T02:03:43;43.80;;;20.38;;
15273;SDS011;7738;49.532;11.156;2023-02-12T02:06:16;40.75;;;20.88;;
15273;SDS011;7738;49.532;11.156;2023-02-12T02:08:53;45.42;;;20.90;;
15273;SDS011;7738;49.532;11.156;2023-02-12T02:11:25;41.92;;;21.30;;
15273;SDS011;7738;49.532;11.156;2023-02-12T02:14:07;38.17;;;21.38;;
15273;SDS011;7738;49.532;11.156;2023-02-12T02:16:52;44.72;;;20.15;;
15273;SDS011;7738;49.532;11.156;2023-02-12T02:19:32;48.33;;;21.23;;
15273;SDS011;7738;49.532;11.156;2023-02-12T02:31:19;41.03;;;21.90;;
15273;SDS011;7738;49.532;11.156;2023-02-12T02:33:56;40.45;;;20.25;;
15273;SDS011;7738;49.532;11.156;2023-02-12T02:36:32;42.88;;;19.77;;
15273;SDS011;7738;49.532;11.156;2023-02-12T02:39:25;39.83;;;21.30;;
15273;SDS011;7738;49.532;11.156;2023-02-12T02:42:02;41.15;;;20.08;;
15273;SDS011;7738;49.532;11.156;2023-02-12T02:44:40;46.83;;;20.88;;
15273;SDS011;7738;49.532;11.156;2023-02-12T02:47:28;40.53;;;21.15;;
15273;SDS011;7738;49.532;11.156;2023-02-12T02:50:03;46.60;;;23.27;;
15273;SDS011;7738;49.532;11.156;2023-02-12T02:52:37;43.33;;;21.98;;
15273;SDS011;7738;49.532;11.156;2023-02-12T02:55:12;46.38;;;20.40;;
15273;SDS011;7738;49.532;11.156;2023-02-12T02:57:47;46.72;;;22.92;;
15273;SDS011;7738;49.532;11.156;2023-02-12T03:00:22;43.28;;;20.75;;
15273;SDS011;7738;49.532;11.156;2023-02-12T03:03:05;40.97;;;21.50;;
15273;SDS011;7738;49.532;11.156;2023-02-12T03:05:41;44.80;;;20.63;;
15273;SDS011;7738;49.532;11.156;2023-02-12T03:08:13;42.53;;;22.23;;
15273;SDS011;7738;49.532;11.156;2023-02-12T03:10:50;35.30;;;17.52;;
15273;SDS011;7738;49.532;11.156;2023-02-12T03:13:24;31.88;;;17.45;;
15273;SDS011;7738;49.532;11.156;2023-02-12T03:15:58;34.90;;;17.90;;
15273;SDS011;7738;49.532;11.156;2023-02-12T03:21:08;38.63;;;17.55;;
15273;SDS011;7738;49.532;11.156;2023-02-12T03:23:42;37.95;;;18.15;;
15273;SDS011;7738;49.532;11.156;2023-02-12T03:26:20;41.90;;;19.65;;
15273;SDS011;7738;49.532;11.156;2023-02-12T03:28:53;37.03;;;18.33;;
15273;SDS011;7738;49.532;11.156;2023-02-12T03:31:26;37.90;;;18.38;;
15273;SDS011;7738;49.532;11.156;2023-02-12T03:34:10;38.85;;;18.75;;
15273;SDS011;7738;49.532;11.156;2023-02-12T03:36:47;35.85;;;19.15;;
15273;SDS011;7738;49.532;11.156;2023-02-12T03:39:25;41.58;;;19.15;;
15273;SDS011;7738;49.532;11.156;2023-02-12T03:42:01;45.75;;;20.83;;
15273;SDS011;7738;49.532;11.156;2023-02-12T03:44:38;43.97;;;21.05;;
15273;SDS011;7738;49.532;11.156;2023-02-12T03:47:16;47.10;;;21.50;;
15273;SDS011;7738;49.532;11.156;2023-02-12T03:49:58;46.92;;;23.10;;
15273;SDS011;7738;49.532;11.156;2023-02-12T03:52:31;48.35;;;22.25;;
15273;SDS011;7738;49.532;11.156;2023-02-12T03:55:02;43.08;;;21.08;;
15273;SDS011;7738;49.532;11.156;2023-02-12T03:57:36;40.83;;;22.13;;
15273;SDS011;7738;49.532;11.156;2023-02-12T04:00:10;38.05;;;18.98;;
15273;SDS011;7738;49.532;11.156;2023-02-12T04:02:45;46.30;;;21.35;;
15273;SDS011;7738;49.532;11.156;2023-02-12T04:05:19;46.50;;;23.00;;
15273;SDS011;7738;49.532;11.156;2023-02-12T04:07:54;39.05;;;20.83;;
15273;SDS011;7738;49.532;11.156;2023-02-12T04:10:28;44.40;;;21.10;;
15273;SDS011;7738;49.532;11.156;2023-02-12T04:13:06;46.20;;;21.95;;
15273;SDS011;7738;49.532;11.156;2023-02-12T04:15:51;47.40;;;22.05;;
15273;SDS011;7738;49.532;11.156;2023-02-12T04:18:32;45.70;;;22.05;;
15273;SDS011;7738;49.532;11.156;2023-02-12T04:21:11;43.85;;;21.25;;
15273;SDS011;7738;49.532;11.156;2023-02-12T04:23:46;48.50;;;21.08;;
15273;SDS011;7738;49.532;11.156;2023-02-12T04:26:25;42.13;;;20.30;;
15273;SDS011;7738;49.532;11.156;2023-02-12T04:29:07;44.72;;;21.95;;
15273;SDS011;7738;49.532;11.156;2023-02-12T04:31:47;40.90;;;20.58;;
15273;SDS011;7738;49.532;11.156;2023-02-12T04:34:24;52.47;;;21.27;;
15273;SDS011;7738;49.532;11.156;2023-02-12T04:39:33;40.95;;;20.90;;
15273;SDS011;7738;49.532;11.156;2023-02-12T04:42:05;43.75;;;20.83;;
15273;SDS011;7738;49.532;11.156;2023-02-12T04:44:39;45.70;;;23.15;;
15273;SDS011;7738;49.532;11.156;2023-02-12T04:47:11;46.80;;;22.23;;
15273;SDS011;7738;49.532;11.156;2023-02-12T04:49:41;40.15;;;19.73;;
15273;SDS011;7738;49.532;11.156;2023-02-12T04:52:14;44.03;;;20.75;;
15273;SDS011;7738;49.532;11.156;2023-02-12T04:54:45;42.92;;;20.75;;
15273;SDS011;7738;49.532;11.156;2023-02-12T04:57:15;46.88;;;22.10;;
15273;SDS011;7738;49.532;11.156;2023-02-12T04:59:45;46.13;;;22.65;;
15273;SDS011;7738;49.532;11.156;2023-02-12T05:02:15;50.00;;;21.05;;
15273;SDS011;7738;49.532;11.156;2023-02-12T05:04:47;50.40;;;22.63;;
15273;SDS011;7738;49.532;11.156;2023-02-12T05:07:20;47.97;;;22.38;;
15273;SDS011;7738;49.532;11.156;2023-02-12T05:09:50;53.83;;;23.92;;
15273;SDS011;7738;49.532;11.156;2023-02-12T05:12:20;49.47;;;21.42;;
15273;SDS011;7738;49.532;11.156;2023-02-12T05:14:51;49.60;;;22.67;;
15273;SDS011;7738;49.532;11.156;2023-02-12T05:17:21;46.42;;;21.08;;
15273;SDS011;7738;49.532;11.156;2023-02-12T05:19:52;46.42;;;22.08;;
15273;SDS011;7738;49.532;11.156;2023-02-12T05:22:25;48.65;;;22.33;;
15273;SDS011;7738;49.532;11.156;2023-02-12T05:24:55;50.20;;;22.17;;
15273;SDS011;7738;49.532;11.156;2023-02-12T05:27:25;48.92;;;23.63;;
15273;SDS011;7738;49.532;11.156;2023-02-12T05:29:56;48.72;;;22.38;;
15273;SDS011;7738;49.532;11.156;2023-02-12T05:32:27;44.15;;;21.70;;
15273;SDS011;7738;49.532;11.156;2023-02-12T05:35:04;51.38;;;24.65;;
15273;SDS011;7738;49.532;11.156;2023-02-12T05:37:38;47.55;;;21.98;;
15273;SDS011;7738;49.532;11.156;2023-02-12T05:40:08;41.58;;;20.88;;
15273;SDS011;7738;49.532;11.156;2023-02-12T05:42:39;45.25;;;20.85;;
15273;SDS011;7738;49.532;11.156;2023-02-12T05:45:09;44.75;;;21.10;;
15273;SDS011;7738;49.532;11.156;2023-02-12T05:47:39;43.78;;;21.92;;
15273;SDS011;7738;49.532;11.156;2023-02-12T05:50:09;51.85;;;21.92;;
15273;SDS011;7738;49.532;11.156;2023-02-12T05:52:42;50.97;;;22.27;;
15273;SDS011;7738;49.532;11.156;2023-02-12T05:55:12;46.97;;;22.98;;
15273;SDS011;7738;49.532;11.156;2023-02-12T05:57:42;50.95;;;21.38;;
15273;SDS011;7738;49.532;11.156;2023-02-12T06:00:13;63.08;;;25.13;;
15273;SDS011;7738;49.532;11.156;2023-02-12T06:02:43;53.67;;;22.75;;
15273;SDS011;7738;49.532;11.156;2023-02-12T06:05:13;53.80;;;24.70;;
15273;SDS011;7738;49.532;11.156;2023-02-12T06:07:46;66.38;;;25.50;;
15273;SDS011;7738;49.532;11.156;2023-02-12T06:10:16;55.33;;;24.90;;
15273;SDS011;7738;49.532;11.156;2023-02-12T06:12:46;52.15;;;23.50;;
15273;SDS011;7738;49.532;11.156;2023-02-12T06:15:21;37.38;;;19.30;;
15273;SDS011;7738;49.532;11.156;2023-02-12T06:17:51;44.60;;;20.17;;
15273;SDS011;7738;49.532;11.156;2023-02-12T06:20:21;41.00;;;19.92;;
15273;SDS011;7738;49.532;11.156;2023-02-12T06:22:53;47.33;;;22.70;;
15273;SDS011;7738;49.532;11.156;2023-02-12T06:25:24;50.70;;;22.75;;
15273;SDS011;7738;49.532;11.156;2023-02-12T06:27:54;58.88;;;23.92;;
15273;SDS011;7738;49.532;11.156;2023-02-12T06:30:24;55.83;;;21.83;;
15273;SDS011;7738;49.532;11.156;2023-02-12T06:32:54;52.33;;;22.73;;
15273;SDS011;7738;49.532;11.156;2023-02-12T06:35:24;49.25;;;22.55;;
15273;SDS011;7738;49.532;11.156;2023-02-12T06:37:56;57.65;;;23.60;;
15273;SDS011;7738;49.532;11.156;2023-02-12T06:40:26;60.13;;;25.75;;
15273;SDS011;7738;49.532;11.156;2023-02-12T06:42:56;65.18;;;24.33;;
15273;SDS011;7738;49.532;11.156;2023-02-12T06:45:26;56.50;;;25.50;;
15273;SDS011;7738;49.532;11.156;2023-02-12T06:47:56;66.28;;;27.45;;
15273;SDS011;7738;49.532;11.156;2023-02-12T06:50:26;59.58;;;25.55;;
15273;SDS011;7738;49.532;11.156;2023-02-12T06:52:59;77.20;;;30.15;;
15273;SDS011;7738;49.532;11.156;2023-02-12T06:55:29;72.10;;;28.23;;
15273;SDS011;7738;49.532;11.156;2023-02-12T06:57:59;76.22;;;28.23;;
15273;SDS011;7738;49.532;11.156;2023-02-12T07:00:29;78.93;;;28.30;;
15273;SDS011;7738;49.532;11.156;2023-02-12T07:02:59;75.75;;;31.23;;
15273;SDS011;7738;49.532;11.156;2023-02-12T07:05:29;76.00;;;28.70;;
15273;SDS011;7738;49.532;11.156;2023-02-12T07:08:05;73.20;;;28.70;;
15273;SDS011;7738;49.532;11.156;2023-02-12T07:10:35;82.03;;;29.10;;
15273;SDS011;7738;49.532;11.156;2023-02-12T07:13:05;83.78;;;28.65;;
15273;SDS011;7738;49.532;11.156;2023-02-12T07:15:37;88.18;;;30.60;;
15273;SDS011;7738;49.532;11.156;2023-02-12T07:18:07;93.68;;;29.80;;
15273;SDS011;7738;49.532;11.156;2023-02-12T07:20:37;88.50;;;29.50;;
15273;SDS011;7738;49.532;11.156;2023-02-12T07:23:12;78.60;;;30.90;;
15273;SDS011;7738;49.532;11.156;2023-02-12T07:25:42;81.00;;;30.40;;
15273;SDS011;7738;49.532;11.156;2023-02-12T07:28:12;70.32;;;27.08;;
15273;SDS011;7738;49.532;11.156;2023-02-12T07:30:42;78.10;;;29.10;;
15273;SDS011;7738;49.532;11.156;2023-02-12T07:33:12;71.95;;;28.20;;
15273;SDS011;7738;49.532;11.156;2023-02-12T07:35:42;74.13;;;30.40;;
15273;SDS011;7738;49.532;11.156;2023-02-12T07:38:14;61.35;;;26.67;;
15273;SDS011;7738;49.532;11.156;2023-02-12T07:40:44;80.45;;;28.08;;
15273;SDS011;7738;49.532;11.156;2023-02-12T07:43:14;64.55;;;26.95;;
15273;SDS011;7738;49.532;11.156;2023-02-12T07:45:44;68.90;;;26.48;;
15273;SDS011;7738;49.532;11.156;2023-02-12T07:48:14;62.80;;;25.10;;
15273;SDS011;7738;49.532;11.156;2023-02-12T07:50:44;77.55;;;29.00;;
15273;SDS011;7738;49.532;11.156;2023-02-12T07:53:17;75.47;;;30.73;;
15273;SDS011;7738;49.532;11.156;2023-02-12T07:55:47;77.88;;;26.90;;
15273;SDS011;7738;49.532;11.156;2023-02-12T07:58:17;75.32;;;27.42;;
15273;SDS011;7738;49.532;11.156;2023-02-12T08:00:47;71.50;;;27.95;;
15273;SDS011;7738;49.532;11.156;2023-02-12T08:03:18;80.88;;;27.85;;
15273;SDS011;7738;49.532;11.156;2023-02-12T08:05:48;79.18;;;28.70;;
15273;SDS011;7738;49.532;11.156;2023-02-12T08:08:20;69.18;;;29.02;;
15273;SDS011;7738;49.532;11.156;2023-02-12T08:10:50;73.00;;;28.65;;
15273;SDS011;7738;49.532;11.156;2023-02-12T08:13:20;75.30;;;29.13;;
15273;SDS011;7738;49.532;11.156;2023-02-12T08:15:52;79.10;;;28.88;;
15273;SDS011;7738;49.532;11.156;2023-02-12T08:18:29;69.95;;;28.95;;
15273;SDS011;7738;49.532;11.156;2023-02-12T08:21:00;74.68;;;30.48;;
15273;SDS011;7738;49.532;11.156;2023-02-12T08:23:35;81.30;;;32.60;;
15273;SDS011;7738;49.532;11.156;2023-02-12T08:26:09;75.50;;;30.02;;
15273;SDS011;7738;49.532;11.156;2023-02-12T08:28:40;81.03;;;29.50;;
15273;SDS011;7738;49.532;11.156;2023-02-12T08:31:12;74.13;;;28.25;;
15273;SDS011;7738;49.532;11.156;2023-02-12T08:33:46;72.97;;;30.27;;
15273;SDS011;7738;49.532;11.156;2023-02-12T08:36:17;79.93;;;29.75;;
15273;SDS011;7738;49.532;11.156;2023-02-12T08:38:56;75.28;;;30.50;;
15273;SDS011;7738;49.532;11.156;2023-02-12T08:41:27;79.90;;;29.80;;
15273;SDS011;7738;49.532;11.156;2023-02-12T08:43:59;73.55;;;28.85;;
15273;SDS011;7738;49.532;11.156;2023-02-12T08:46:31;75.25;;;29.15;;
15273;SDS011;7738;49.532;11.156;2023-02-12T08:49:03;80.13;;;30.00;;
15273;SDS011;7738;49.532;11.156;2023-02-12T08:51:37;78.10;;;29.48;;
15273;SDS011;7738;49.532;11.156;2023-02-12T08:54:12;75.32;;;28.85;;
15273;SDS011;7738;49.532;11.156;2023-02-12T08:56:43;77.82;;;28.48;;
15273;SDS011;7738;49.532;11.156;2023-02-12T08:59:13;75.10;;;28.27;;
15273;SDS011;7738;49.532;11.156;2023-02-12T09:01:44;63.70;;;27.23;;
15273;SDS011;7738;49.532;11.156;2023-02-12T09:04:15;59.83;;;25.10;;
15273;SDS011;7738;49.532;11.156;2023-02-12T09:06:48;64.63;;;26.65;;
15273;SDS011;7738;49.532;11.156;2023-02-12T09:09:22;60.63;;;24.50;;
15273;SDS011;7738;49.532;11.156;2023-02-12T09:11:52;62.92;;;23.77;;
15273;SDS011;7738;49.532;11.156;2023-02-12T09:14:21;65.32;;;25.20;;
15273;SDS011;7738;49.532;11.156;2023-02-12T09:16:52;64.50;;;24.10;;
15273;SDS011;7738;49.532;11.156;2023-02-12T09:19:24;64.68;;;27.02;;
15273;SDS011;7738;49.532;11.156;2023-02-12T09:21:54;65.70;;;26.20;;
15273;SDS011;7738;49.532;11.156;2023-02-12T09:24:27;64.03;;;25.63;;
15273;SDS011;7738;49.532;11.156;2023-02-12T09:26:57;66.38;;;24.65;;
15273;SDS011;7738;49.532;11.156;2023-02-12T09:29:27;66.60;;;25.95;;
15273;SDS011;7738;49.532;11.156;2023-02-12T09:31:57;71.40;;;26.70;;
15273;SDS011;7738;49.532;11.156;2023-02-12T09:34:32;78.10;;;27.48;;
15273;SDS011;7738;49.532;11.156;2023-02-12T09:37:03;70.25;;;26.77;;
15273;SDS011;7738;49.532;11.156;2023-02-12T09:39:36;78.47;;;26.00;;
15273;SDS011;7738;49.532;11.156;2023-02-12T09:42:18;60.60;;;23.50;;
15273;SDS011;7738;49.532;11.156;2023-02-12T09:44:59;60.38;;;25.60;;
15273;SDS011;7738;49.532;11.156;2023-02-12T09:47:37;65.47;;;23.17;;
15273;SDS011;7738;49.532;11.156;2023-02-12T09:50:22;57.00;;;22.92;;
15273;SDS011;7738;49.532;11.156;2023-02-12T09:52:59;51.15;;;18.25;;
15273;SDS011;7738;49.532;11.156;2023-02-12T09:55:33;49.38;;;18.98;;
15273;SDS011;7738;49.532;11.156;2023-02-12T09:58:07;49.58;;;19.85;;
15273;SDS011;7738;49.532;11.156;2023-02-12T10:00:42;42.45;;;17.42;;
15273;SDS011;7738;49.532;11.156;2023-02-12T10:03:13;49.65;;;16.92;;
15273;SDS011;7738;49.532;11.156;2023-02-12T10:05:46;41.80;;;17.85;;
15273;SDS011;7738;49.532;11.156;2023-02-12T10:08:22;49.30;;;18.77;;
15273;SDS011;7738;49.532;11.156;2023-02-12T10:11:27;41.70;;;15.57;;
15273;SDS011;7738;49.532;11.156;2023-02-12T10:14:16;47.55;;;15.55;;
15273;SDS011;7738;49.532;11.156;2023-02-12T10:17:06;42.20;;;16.30;;
15273;SDS011;7738;49.532;11.156;2023-02-12T10:19:49;42.97;;;16.02;;
15273;SDS011;7738;49.532;11.156;2023-02-12T10:22:34;47.60;;;16.67;;
15273;SDS011;7738;49.532;11.156;2023-02-12T10:25:23;37.58;;;16.10;;
15273;SDS011;7738;49.532;11.156;2023-02-12T10:28:01;47.42;;;16.17;;
15273;SDS011;7738;49.532;11.156;2023-02-12T10:30:39;49.42;;;18.35;;
15273;SDS011;7738;49.532;11.156;2023-02-12T10:33:15;43.40;;;17.75;;
15273;SDS011;7738;49.532;11.156;2023-02-12T10:35:48;44.67;;;18.77;;
15273;SDS011;7738;49.532;11.156;2023-02-12T10:38:23;42.22;;;16.00;;
15273;SDS011;7738;49.532;11.156;2023-02-12T10:43:30;36.35;;;15.65;;
15273;SDS011;7738;49.532;11.156;2023-02-12T10:46:00;36.00;;;15.40;;
15273;SDS011;7738;49.532;11.156;2023-02-12T10:48:31;38.58;;;16.55;;
15273;SDS011;7738;49.532;11.156;2023-02-12T10:51:10;42.17;;;16.10;;
15273;SDS011;7738;49.532;11.156;2023-02-12T10:53:51;42.92;;;15.80;;
15273;SDS011;7738;49.532;11.156;2023-02-12T10:56:21;32.85;;;15.88;;
15273;SDS011;7738;49.532;11.156;2023-02-12T10:58:57;39.42;;;16.17;;
15273;SDS011;7738;49.532;11.156;2023-02-12T11:01:30;33.40;;;13.52;;
15273;SDS011;7738;49.532;11.156;2023-02-12T11:04:17;32.03;;;13.48;;
15273;SDS011;7738;49.532;11.156;2023-02-12T11:06:56;35.90;;;14.70;;
15273;SDS011;7738;49.532;11.156;2023-02-12T11:09:29;32.20;;;13.90;;
15273;SDS011;7738;49.532;11.156;2023-02-12T11:12:12;31.42;;;13.75;;
15273;SDS011;7738;49.532;11.156;2023-02-12T11:17:37;31.85;;;14.40;;
15273;SDS011;7738;49.532;11.156;2023-02-12T11:20:18;34.15;;;14.07;;
15273;SDS011;7738;49.532;11.156;2023-02-12T11:22:52;34.28;;;13.90;;
15273;SDS011;7738;49.532;11.156;2023-02-12T11:25:24;28.55;;;11.90;;
15273;SDS011;7738;49.532;11.156;2023-02-12T11:28:00;28.23;;;13.65;;
15273;SDS011;7738;49.532;11.156;2023-02-12T11:30:36;28.80;;;12.90;;
15273;SDS011;7738;49.532;11.156;2023-02-12T11:33:22;27.88;;;12.48;;
15273;SDS011;7738;49.532;11.156;2023-02-12T11:35:55;31.88;;;13.93;;
15273;SDS011;7738;49.532;11.156;2023-02-12T11:38:30;34.88;;;15.00;;
15273;SDS011;7738;49.532;11.156;2023-02-12T11:41:06;33.83;;;16.02;;
15273;SDS011;7738;49.532;11.156;2023-02-12T11:43:49;27.65;;;12.77;;
15273;SDS011;7738;49.532;11.156;2023-02-12T11:46:23;35.50;;;14.65;;
15273;SDS011;7738;49.532;11.156;2023-02-12T11:48:55;27.40;;;12.82;;
15273;SDS011;7738;49.532;11.156;2023-02-12T11:51:27;30.05;;;12.50;;
15273;SDS011;7738;49.532;11.156;2023-02-12T11:54:00;37.30;;;14.88;;
15273;SDS011;7738;49.532;11.156;2023-02-12T11:56:41;34.53;;;14.50;;
15273;SDS011;7738;49.532;11.156;2023-02-12T11:59:20;35.53;;;16.13;;
15273;SDS011;7738;49.532;11.156;2023-02-12T12:02:02;28.77;;;12.05;;
15273;SDS011;7738;49.532;11.156;2023-02-12T12:04:42;31.25;;;14.98;;
15273;SDS011;7738;49.532;11.156;2023-02-12T12:07:18;33.45;;;15.10;;
15273;SDS011;7738;49.532;11.156;2023-02-12T12:09:54;29.90;;;14.40;;
15273;SDS011;7738;49.532;11.156;2023-02-12T12:17:51;26.75;;;13.32;;
15273;SDS011;7738;49.532;11.156;2023-02-12T12:20:38;32.67;;;13.43;;
15273;SDS011;7738;49.532;11.156;2023-02-12T12:23:15;29.80;;;12.80;;
15273;SDS011;7738;49.532;11.156;2023-02-12T12:25:49;28.17;;;12.98;;
15273;SDS011;7738;49.532;11.156;2023-02-12T12:28:26;29.45;;;13.20;;
15273;SDS011;7738;49.532;11.156;2023-02-12T12:31:03;25.25;;;11.75;;
15273;SDS011;7738;49.532;11.156;2023-02-12T12:33:42;30.67;;;14.00;;
15273;SDS011;7738;49.532;11.156;2023-02-12T12:36:29;29.25;;;13.43;;
15273;SDS011;7738;49.532;11.156;2023-02-12T12:39:22;27.02;;;11.48;;
15273;SDS011;7738;49.532;11.156;2023-02-12T12:45:11;33.00;;;14.25;;
15273;SDS011;7738;49.532;11.156;2023-02-12T12:47:56;31.75;;;13.60;;
15273;SDS011;7738;49.532;11.156;2023-02-12T12:50:47;29.92;;;12.82;;
15273;SDS011;7738;49.532;11.156;2023-02-12T12:53:31;25.85;;;12.77;;
15273;SDS011;7738;49.532;11.156;2023-02-12T12:56:17;26.63;;;13.05;;
15273;SDS011;7738;49.532;11.156;2023-02-12T12:59:08;25.73;;;12.48;;
15273;SDS011;7738;49.532;11.156;2023-02-12T13:01:57;32.28;;;13.15;;
15273;SDS011;7738;49.532;11.156;2023-02-12T13:04:53;32.17;;;13.35;;
15273;SDS011;7738;49.532;11.156;2023-02-12T13:07:51;34.50;;;14.40;;
15273;SDS011;7738;49.532;11.156;2023-02-12T13:10:28;31.23;;;12.93;;
15273;SDS011;7738;49.532;11.156;2023-02-12T13:13:04;31.67;;;13.43;;
15273;SDS011;7738;49.532;11.156;2023-02-12T13:15:38;29.58;;;13.63;;
15273;SDS011;7738;49.532;11.156;2023-02-12T13:18:15;32.55;;;15.35;;
15273;SDS011;7738;49.532;11.156;2023-02-12T13:20:49;29.92;;;13.23;;
15273;SDS011;7738;49.532;11.156;2023-02-12T13:23:31;29.00;;;14.30;;
15273;SDS011;7738;49.532;11.156;2023-02-12T13:26:06;33.08;;;14.88;;
15273;SDS011;7738;49.532;11.156;2023-02-12T13:31:09;32.95;;;13.52;;
15273;SDS011;7738;49.532;11.156;2023-02-12T13:34:00;26.23;;;13.48;;
15273;SDS011;7738;49.532;11.156;2023-02-12T13:36:33;30.40;;;13.63;;
15273;SDS011;7738;49.532;11.156;2023-02-12T13:39:11;31.83;;;15.27;;
15273;SDS011;7738;49.532;11.156;2023-02-12T13:41:44;29.50;;;12.93;;
15273;SDS011;7738;49.532;11.156;2023-02-12T13:44:17;30.38;;;13.30;;
15273;SDS011;7738;49.532;11.156;2023-02-12T13:46:58;30.80;;;14.25;;
15273;SDS011;7738;49.532;11.156;2023-02-12T13:49:34;29.05;;;13.20;;
15273;SDS011;7738;49.532;11.156;2023-02-12T13:52:09;30.25;;;13.40;;
15273;SDS011;7738;49.532;11.156;2023-02-12T13:54:52;26.77;;;13.32;;
15273;SDS011;7738;49.532;11.156;2023-02-12T13:57:28;22.60;;;13.43;;
15273;SDS011;7738;49.532;11.156;2023-02-12T13:59:58;30.90;;;13.57;;
15273;SDS011;7738;49.532;11.156;2023-02-12T14:02:43;27.90;;;11.98;;
15273;SDS011;7738;49.532;11.156;2023-02-12T14:05:23;28.05;;;12.70;;
15273;SDS011;7738;49.532;11.156;2023-02-12T14:07:59;24.83;;;12.45;;
15273;SDS011;7738;49.532;11.156;2023-02-12T14:10:35;26.23;;;13.20;;
15273;SDS011;7738;49.532;11.156;2023-02-12T14:13:10;26.95;;;13.75;;
15273;SDS011;7738;49.532;11.156;2023-02-12T14:15:41;25.17;;;12.55;;
15273;SDS011;7738;49.532;11.156;2023-02-12T14:18:26;27.90;;;13.25;;
15273;SDS011;7738;49.532;11.156;2023-02-12T14:23:43;24.08;;;11.32;;
15273;SDS011;7738;49.532;11.156;2023-02-12T14:26:20;23.90;;;11.07;;
15273;SDS011;7738;49.532;11.156;2023-02-12T14:28:52;21.73;;;10.77;;
15273;SDS011;7738;49.532;11.156;2023-02-12T14:37:10;22.33;;;10.52;;
15273;SDS011;7738;49.532;11.156;2023-02-12T14:39:41;21.73;;;10.90;;
15273;SDS011;7738;49.532;11.156;2023-02-12T14:44:59;20.05;;;10.93;;
15273;SDS011;7738;49.532;11.156;2023-02-12T14:50:19;24.45;;;11.63;;
15273;SDS011;7738;49.532;11.156;2023-02-12T14:52:50;24.05;;;12.80;;
15273;SDS011;7738;49.532;11.156;2023-02-12T14:55:23;26.83;;;12.80;;
15273;SDS011;7738;49.532;11.156;2023-02-12T14:57:57;25.50;;;12.82;;
15273;SDS011;7738;49.532;11.156;2023-02-12T15:00:33;33.33;;;14.50;;
15273;SDS011;7738;49.532;11.156;2023-02-12T15:03:10;26.13;;;13.80;;
15273;SDS011;7738;49.532;11.156;2023-02-12T15:05:49;26.73;;;14.23;;
15273;SDS011;7738;49.532;11.156;2023-02-12T15:08:29;33.90;;;14.80;;
15273;SDS011;7738;49.532;11.156;2023-02-12T15:11:06;35.42;;;16.33;;
15273;SDS011;7738;49.532;11.156;2023-02-12T15:13:46;32.75;;;16.27;;
15273;SDS011;7738;49.532;11.156;2023-02-12T15:16:23;30.92;;;15.38;;
15273;SDS011;7738;49.532;11.156;2023-02-12T15:18:59;33.72;;;16.92;;
15273;SDS011;7738;49.532;11.156;2023-02-12T15:21:34;28.58;;;14.88;;
15273;SDS011;7738;49.532;11.156;2023-02-12T15:24:05;31.45;;;15.57;;
15273;SDS011;7738;49.532;11.156;2023-02-12T15:26:38;29.42;;;15.82;;
15273;SDS011;7738;49.532;11.156;2023-02-12T15:29:15;33.03;;;14.98;;
15273;SDS011;7738;49.532;11.156;2023-02-12T15:31:54;32.55;;;15.45;;
15273;SDS011;7738;49.532;11.156;2023-02-12T15:34:26;29.58;;;13.48;;
15273;SDS011;7738;49.532;11.156;2023-02-12T15:36:58;33.22;;;17.02;;
15273;SDS011;7738;49.532;11.156;2023-02-12T15:39:31;30.13;;;15.20;;
15273;SDS011;7738;49.532;11.156;2023-02-12T15:45:01;31.77;;;15.93;;
15273;SDS011;7738;49.532;11.156;2023-02-12T15:47:33;31.23;;;14.68;;
15273;SDS011;7738;49.532;11.156;2023-02-12T15:50:04;26.55;;;14.48;;